Time,TemperatureF,DewpointF,PressureIn,WindDirection,WindDirectionDegrees,WindSpeedMPH,WindSpeedGustMPH,Humidity,HourlyPrecipIn,Conditions,Clouds,dailyrainin,SolarRadiationWatts/m^2,SoftwareType,DateUTC
2013-03-25 00:12:00,61.0,31.0,-100.00,WSW,237,3.0,5.0,32,0.00,,,0.00,1.000000,,2013-03-25 07:12:00,
2013-03-25 00:42:00,64.0,25.0,-100.00,NE,55,3.0,5.0,23,0.00,,,0.00,1.000000,,2013-03-25 07:42:00,
2013-03-25 00:52:00,64.0,25.0,-100.00,NE,55,3.0,5.0,23,0.00,,,0.00,1.000000,,2013-03-25 07:52:00,
2013-03-25 01:02:00,64.0,25.0,-100.00,NE,55,3.0,5.0,23,0.00,,,0.00,1.000000,,2013-03-25 08:02:00,
2013-03-25 01:11:00,64.0,25.0,-100.00,NE,55,3.0,5.0,23,0.00,,,0.00,1.000000,,2013-03-25 08:11:00,
2013-03-25 01:43:00,62.0,25.0,-100.00,ESE,105,5.0,7.0,24,0.00,,,0.00,1.000000,,2013-03-25 08:43:00,
2013-03-25 01:52:00,62.0,25.0,-100.00,ESE,105,5.0,7.0,24,0.00,,,0.00,1.000000,,2013-03-25 08:52:00,
2013-03-25 02:02:00,62.0,25.0,-100.00,ESE,105,5.0,7.0,24,0.00,,,0.00,1.000000,,2013-03-25 09:02:00,
2013-03-25 02:11:00,62.0,25.0,-100.00,ESE,105,5.0,7.0,24,0.00,,,0.00,1.000000,,2013-03-25 09:11:00,
2013-03-25 02:43:00,62.0,22.0,-100.00,ENE,77,4.0,6.0,21,0.00,,,0.00,1.000000,,2013-03-25 09:43:00,
2013-03-25 02:52:00,62.0,22.0,-100.00,ENE,77,4.0,6.0,21,0.00,,,0.00,1.000000,,2013-03-25 09:52:00,
2013-03-25 03:02:00,62.0,22.0,-100.00,ENE,77,4.0,6.0,21,0.00,,,0.00,1.000000,,2013-03-25 10:02:00,
2013-03-25 03:12:00,62.0,22.0,-100.00,ENE,77,4.0,6.0,21,0.00,,,0.00,1.000000,,2013-03-25 10:12:00,
2013-03-25 03:42:00,61.0,18.0,-100.00,ESE,113,4.0,6.0,19,0.00,,,0.00,1.000000,,2013-03-25 10:42:00,
2013-03-25 03:53:00,61.0,18.0,-100.00,ESE,113,4.0,6.0,19,0.00,,,0.00,1.000000,,2013-03-25 10:53:00,
2013-03-25 04:02:00,61.0,18.0,-100.00,ESE,113,4.0,6.0,19,0.00,,,0.00,1.000000,,2013-03-25 11:02:00,
2013-03-25 04:12:00,61.0,18.0,-100.00,ESE,113,4.0,6.0,19,0.00,,,0.00,1.000000,,2013-03-25 11:12:00,
2013-03-25 04:42:00,59.0,22.0,-100.00,East,96,2.0,7.0,24,0.00,,,0.00,1.000000,,2013-03-25 11:42:00,
2013-03-25 04:52:00,59.0,22.0,-100.00,East,96,2.0,7.0,24,0.00,,,0.00,1.000000,,2013-03-25 11:52:00,
2013-03-25 05:02:00,59.0,22.0,-100.00,East,96,2.0,7.0,24,0.00,,,0.00,1.000000,,2013-03-25 12:02:00,
2013-03-25 05:12:00,59.0,22.0,-100.00,East,96,2.0,7.0,24,0.00,,,0.00,1.000000,,2013-03-25 12:12:00,
2013-03-25 05:43:00,59.0,20.0,-100.00,ESE,102,1.0,4.0,22,0.00,,,0.00,1.000000,,2013-03-25 12:43:00,
2013-03-25 05:53:00,59.0,20.0,-100.00,ESE,102,1.0,4.0,22,0.00,,,0.00,1.000000,,2013-03-25 12:53:00,
2013-03-25 06:02:00,59.0,20.0,-100.00,ESE,102,1.0,4.0,22,0.00,,,0.00,1.000000,,2013-03-25 13:02:00,
2013-03-25 06:12:00,59.0,20.0,-100.00,ESE,102,1.0,4.0,22,0.00,,,0.00,1.000000,,2013-03-25 13:12:00,
2013-03-25 06:43:00,56.0,26.0,-100.00,SSE,152,1.0,7.0,31,0.00,,,0.00,1.000000,,2013-03-25 13:43:00,
2013-03-25 06:52:00,56.0,26.0,-100.00,SSE,152,1.0,7.0,31,0.00,,,0.00,1.000000,,2013-03-25 13:52:00,
2013-03-25 07:02:00,56.0,26.0,-100.00,SSE,152,1.0,7.0,31,0.00,,,0.00,1.000000,,2013-03-25 14:02:00,
2013-03-25 07:12:00,56.0,26.0,-100.00,SSE,152,1.0,7.0,31,0.00,,,0.00,1.000000,,2013-03-25 14:12:00,
2013-03-25 07:43:00,55.0,26.0,-100.00,NNW,343,0.0,3.0,33,0.00,,,0.00,14.000000,,2013-03-25 14:43:00,
2013-03-25 07:53:00,55.0,26.0,-100.00,NNW,343,0.0,3.0,33,0.00,,,0.00,14.000000,,2013-03-25 14:53:00,
2013-03-25 08:02:00,55.0,26.0,-100.00,NNW,343,0.0,3.0,33,0.00,,,0.00,14.000000,,2013-03-25 15:02:00,
2013-03-25 08:12:00,55.0,26.0,-100.00,NNW,343,0.0,3.0,33,0.00,,,0.00,14.000000,,2013-03-25 15:12:00,
2013-03-25 08:43:00,63.0,21.0,-100.00,ENE,58,7.0,9.0,20,0.00,,,-99.99,205.000000,,2013-03-25 15:43:00,
2013-03-25 08:53:00,63.0,21.0,-100.00,ENE,58,7.0,9.0,20,0.00,,,-99.99,205.000000,,2013-03-25 15:53:00,
2013-03-25 09:03:00,63.0,21.0,-100.00,ENE,58,7.0,9.0,20,0.00,,,-99.99,205.000000,,2013-03-25 16:03:00,
2013-03-25 09:12:00,63.0,21.0,-100.00,ENE,58,7.0,9.0,20,0.00,,,-99.99,205.000000,,2013-03-25 16:12:00,
2013-03-25 09:43:00,70.0,23.0,-100.00,ENE,66,8.0,11.0,17,0.00,,,0.00,453.000000,,2013-03-25 16:43:00,
2013-03-25 09:53:00,70.0,23.0,-100.00,ENE,66,8.0,11.0,17,0.00,,,0.00,453.000000,,2013-03-25 16:53:00,
2013-03-25 10:02:00,70.0,23.0,-100.00,ENE,66,8.0,11.0,17,0.00,,,0.00,453.000000,,2013-03-25 17:02:00,
2013-03-25 10:12:00,70.0,23.0,-100.00,ENE,66,8.0,11.0,17,0.00,,,0.00,453.000000,,2013-03-25 17:12:00,
2013-03-25 10:43:00,76.0,20.0,-100.00,NE,43,9.0,12.0,12,0.00,,,0.00,670.000000,,2013-03-25 17:43:00,
2013-03-25 10:53:00,76.0,20.0,-100.00,NE,43,9.0,12.0,12,0.00,,,0.00,670.000000,,2013-03-25 17:53:00,
2013-03-25 11:03:00,76.0,20.0,-100.00,NE,43,9.0,12.0,12,0.00,,,0.00,670.000000,,2013-03-25 18:03:00,
2013-03-25 11:12:00,76.0,20.0,-100.00,NE,43,9.0,12.0,12,0.00,,,0.00,670.000000,,2013-03-25 18:12:00,
2013-03-25 11:43:00,80.0,21.0,-100.00,ENE,61,8.0,14.0,11,0.00,,,0.00,844.000000,,2013-03-25 18:43:00,
2013-03-25 11:53:00,80.0,21.0,-100.00,ENE,61,8.0,14.0,11,0.00,,,0.00,844.000000,,2013-03-25 18:53:00,
2013-03-25 12:02:00,80.0,21.0,-100.00,ENE,61,8.0,14.0,11,0.00,,,0.00,844.000000,,2013-03-25 19:02:00,
2013-03-25 12:12:00,80.0,21.0,-100.00,ENE,61,8.0,14.0,11,0.00,,,0.00,844.000000,,2013-03-25 19:12:00,
2013-03-25 12:43:00,84.0,16.0,-100.00,East,99,5.0,12.0,8,0.00,,,-99.99,952.000000,,2013-03-25 19:43:00,
2013-03-25 12:52:00,84.0,16.0,-100.00,East,99,5.0,12.0,8,0.00,,,-99.99,952.000000,,2013-03-25 19:52:00,
2013-03-25 13:02:00,84.0,16.0,-100.00,East,99,5.0,12.0,8,0.00,,,-99.99,952.000000,,2013-03-25 20:02:00,
2013-03-25 13:12:00,84.0,16.0,-100.00,East,99,5.0,12.0,8,0.00,,,-99.99,952.000000,,2013-03-25 20:12:00,
2013-03-25 13:42:00,86.0,15.0,-100.00,ENE,72,5.0,11.0,7,0.00,,,0.00,989.000000,,2013-03-25 20:42:00,
2013-03-25 13:52:00,86.0,15.0,-100.00,ENE,72,5.0,11.0,7,0.00,,,0.00,989.000000,,2013-03-25 20:52:00,
2013-03-25 14:02:00,86.0,15.0,-100.00,ENE,72,5.0,11.0,7,0.00,,,0.00,989.000000,,2013-03-25 21:02:00,
2013-03-25 14:12:00,86.0,15.0,-100.00,ENE,72,5.0,11.0,7,0.00,,,0.00,989.000000,,2013-03-25 21:12:00,
2013-03-25 14:43:00,87.0,16.0,-100.00,NNE,17,5.0,12.0,7,0.00,,,0.00,952.000000,,2013-03-25 21:43:00,
2013-03-25 14:52:00,87.0,16.0,-100.00,NNE,17,5.0,12.0,7,0.00,,,0.00,952.000000,,2013-03-25 21:52:00,
2013-03-25 15:03:00,87.0,16.0,-100.00,NNE,17,5.0,12.0,7,0.00,,,0.00,952.000000,,2013-03-25 22:03:00,
2013-03-25 15:12:00,87.0,16.0,-100.00,NNE,17,5.0,12.0,7,0.00,,,0.00,952.000000,,2013-03-25 22:12:00,
2013-03-25 15:42:00,88.0,16.0,-100.00,WSW,244,5.0,9.0,7,0.00,,,0.00,844.000000,,2013-03-25 22:42:00,
2013-03-25 15:52:00,88.0,16.0,-100.00,WSW,244,5.0,9.0,7,0.00,,,0.00,844.000000,,2013-03-25 22:52:00,
2013-03-25 16:02:00,88.0,16.0,-100.00,WSW,244,5.0,9.0,7,0.00,,,0.00,844.000000,,2013-03-25 23:02:00,
2013-03-25 16:11:00,88.0,16.0,-100.00,WSW,244,5.0,9.0,7,0.00,,,0.00,844.000000,,2013-03-25 23:11:00,
2013-03-25 16:43:00,89.0,17.0,-100.00,NNW,347,4.0,8.0,7,0.00,,,0.00,666.000000,,2013-03-25 23:43:00,
2013-03-25 16:52:00,89.0,17.0,-100.00,NNW,347,4.0,8.0,7,0.00,,,0.00,666.000000,,2013-03-25 23:52:00,
2013-03-25 17:02:00,89.0,17.0,-100.00,NNW,347,4.0,8.0,7,0.00,,,0.00,666.000000,,2013-03-26 00:02:00,
2013-03-25 17:11:00,89.0,17.0,-100.00,NNW,347,4.0,8.0,7,0.00,,,0.00,666.000000,,2013-03-26 00:11:00,
2013-03-25 17:42:00,88.0,16.0,-100.00,East,100,4.0,8.0,7,0.00,,,0.00,436.000000,,2013-03-26 00:42:00,
2013-03-25 17:52:00,88.0,16.0,-100.00,East,100,4.0,8.0,7,0.00,,,0.00,436.000000,,2013-03-26 00:52:00,
2013-03-25 18:02:00,88.0,16.0,-100.00,East,100,4.0,8.0,7,0.00,,,0.00,436.000000,,2013-03-26 01:02:00,
2013-03-25 18:11:00,88.0,16.0,-100.00,East,100,4.0,8.0,7,0.00,,,0.00,436.000000,,2013-03-26 01:11:00,
2013-03-25 18:42:00,86.0,15.0,-100.00,ESE,120,3.0,6.0,7,0.00,,,0.00,219.000000,,2013-03-26 01:42:00,
2013-03-25 18:52:00,86.0,15.0,-100.00,ESE,120,3.0,6.0,7,0.00,,,0.00,219.000000,,2013-03-26 01:52:00,
2013-03-25 19:02:00,86.0,15.0,-100.00,ESE,120,3.0,6.0,7,0.00,,,0.00,219.000000,,2013-03-26 02:02:00,
2013-03-25 19:11:00,86.0,15.0,-100.00,ESE,120,3.0,6.0,7,0.00,,,0.00,219.000000,,2013-03-26 02:11:00,
2013-03-25 19:43:00,81.0,22.0,-100.00,NW,322,2.0,3.0,11,0.00,,,0.00,39.000000,,2013-03-26 02:43:00,
2013-03-25 19:52:00,81.0,22.0,-100.00,NW,322,2.0,3.0,11,0.00,,,0.00,39.000000,,2013-03-26 02:52:00,
2013-03-25 20:02:00,81.0,22.0,-100.00,NW,322,2.0,3.0,11,0.00,,,0.00,39.000000,,2013-03-26 03:02:00,
2013-03-25 20:12:00,81.0,22.0,-100.00,NW,322,2.0,3.0,11,0.00,,,0.00,39.000000,,2013-03-26 03:12:00,
2013-03-25 20:43:00,76.0,27.0,-100.00,SSW,193,2.0,4.0,16,0.00,,,0.00,1.000000,,2013-03-26 03:43:00,
2013-03-25 20:53:00,76.0,27.0,-100.00,SSW,193,2.0,4.0,16,0.00,,,0.00,1.000000,,2013-03-26 03:53:00,
2013-03-25 21:03:00,76.0,27.0,-100.00,SSW,193,2.0,4.0,16,0.00,,,0.00,1.000000,,2013-03-26 04:03:00,
2013-03-25 21:12:00,76.0,27.0,-100.00,SSW,193,2.0,4.0,16,0.00,,,0.00,1.000000,,2013-03-26 04:12:00,
2013-03-25 21:43:00,75.0,26.0,-100.00,West,273,0.0,3.0,16,0.00,,,0.00,1.000000,,2013-03-26 04:43:00,
2013-03-25 21:52:00,75.0,26.0,-100.00,West,273,0.0,3.0,16,0.00,,,0.00,1.000000,,2013-03-26 04:52:00,
2013-03-25 22:02:00,75.0,26.0,-100.00,West,273,0.0,3.0,16,0.00,,,0.00,1.000000,,2013-03-26 05:02:00,
2013-03-25 22:12:00,75.0,26.0,-100.00,West,273,0.0,3.0,16,0.00,,,0.00,1.000000,,2013-03-26 05:12:00,
2013-03-25 22:42:00,72.0,31.0,-100.00,South,184,2.0,11.0,22,0.00,,,0.00,1.000000,,2013-03-26 05:42:00,
2013-03-25 22:52:00,72.0,31.0,-100.00,South,184,2.0,11.0,22,0.00,,,0.00,1.000000,,2013-03-26 05:52:00,
2013-03-25 23:02:00,72.0,31.0,-100.00,South,184,2.0,11.0,22,0.00,,,0.00,1.000000,,2013-03-26 06:02:00,
2013-03-25 23:12:00,72.0,31.0,-100.00,South,184,2.0,11.0,22,0.00,,,0.00,1.000000,,2013-03-26 06:12:00,
2013-03-25 23:43:00,70.0,32.0,-100.00,South,171,6.0,7.0,24,0.00,,,0.00,1.000000,,2013-03-26 06:43:00,
2013-03-25 23:52:00,70.0,32.0,-100.00,South,171,6.0,7.0,24,0.00,,,0.00,1.000000,,2013-03-26 06:52:00,